sensor_id;sensor_type;location;lat;lon;timestamp;pressure;altitude;pressure_sealevel;temperature;humidity
50268;BME280;36153;50.960;6.220;2023-04-19T00:01:54;101500.31;;;14.80;51.89
50268;BME280;36153;50.960;6.220;2023-04-19T00:04:55;101501.22;;;14.81;51.80
50268;BME280;36153;50.960;6.220;2023-04-19T00:07:55;101503.00;;;14.85;51.62
50268;BME280;36153;50.960;6.220;2023-04-19T00:10:56;101502.94;;;14.80;51.65
50268;BME280;36153;50.960;6.220;2023-04-19T00:13:56;101499.41;;;14.77;51.79
50268;BME280;36153;50.960;6.220;2023-04-19T00:16:56;101499.47;;;14.84;51.65
50268;BME280;36153;50.960;6.220;2023-04-19T00:19:57;101506.41;;;14.78;51.85
50268;BME280;36153;50.960;6.220;2023-04-19T00:22:57;101507.28;;;14.78;51.82
50268;BME280;36153;50.960;6.220;2023-04-19T00:25:58;101493.28;;;14.76;51.92
50268;BME280;36153;50.960;6.220;2023-04-19T00:29:01;101506.41;;;14.78;51.80
50268;BME280;36153;50.960;6.220;2023-04-19T00:32:01;101500.31;;;14.80;51.93
50268;BME280;36153;50.960;6.220;2023-04-19T00:35:05;101510.69;;;14.70;52.18
50268;BME280;36153;50.960;6.220;2023-04-19T00:38:05;101510.78;;;14.80;51.98
50268;BME280;36153;50.960;6.220;2023-04-19T00:41:06;101505.56;;;14.80;51.92
50268;BME280;36153;50.960;6.220;2023-04-19T00:44:06;101506.34;;;14.70;52.24
50268;BME280;36153;50.960;6.220;2023-04-19T00:47:06;101501.91;;;14.66;52.29
50268;BME280;36153;50.960;6.220;2023-04-19T00:50:07;101499.50;;;14.86;51.79
50268;BME280;36153;50.960;6.220;2023-04-19T00:53:08;101495.97;;;14.81;51.95
50268;BME280;36153;50.960;6.220;2023-04-19T00:56:09;101494.19;;;14.78;52.04
50268;BME280;36153;50.960;6.220;2023-04-19T00:59:11;101497.63;;;14.71;51.93
50268;BME280;36153;50.960;6.220;2023-04-19T01:02:13;101501.03;;;14.65;52.49
50268;BME280;36153;50.960;6.220;2023-04-19T01:05:14;101488.84;;;14.67;52.58
50268;BME280;36153;50.960;6.220;2023-04-19T01:08:14;101500.09;;;14.60;52.34
50268;BME280;36153;50.960;6.220;2023-04-19T01:11:15;101489.69;;;14.68;52.38
50268;BME280;36153;50.960;6.220;2023-04-19T01:14:15;101488.06;;;14.79;52.44
50268;BME280;36153;50.960;6.220;2023-04-19T01:17:17;101487.22;;;14.82;52.42
50268;BME280;36153;50.960;6.220;2023-04-19T01:20:17;101482.72;;;14.68;52.75
50268;BME280;36153;50.960;6.220;2023-04-19T01:23:18;101484.44;;;14.65;53.03
50268;BME280;36153;50.960;6.220;2023-04-19T01:26:20;101485.22;;;14.61;52.82
50268;BME280;36153;50.960;6.220;2023-04-19T01:29:21;101483.63;;;14.72;52.72
50268;BME280;36153;50.960;6.220;2023-04-19T01:32:21;101482.78;;;14.73;52.83
50268;BME280;36153;50.960;6.220;2023-04-19T01:35:22;101489.59;;;14.60;52.88
50268;BME280;36153;50.960;6.220;2023-04-19T01:38:22;101492.28;;;14.65;52.87
50268;BME280;36153;50.960;6.220;2023-04-19T01:41:22;101487.00;;;14.62;53.14
50268;BME280;36153;50.960;6.220;2023-04-19T01:44:26;101483.44;;;14.55;53.29
50268;BME280;36153;50.960;6.220;2023-04-19T01:47:26;101478.16;;;14.52;53.31
50268;BME280;36153;50.960;6.220;2023-04-19T01:50:26;101475.53;;;14.50;53.44
50268;BME280;36153;50.960;6.220;2023-04-19T01:53:27;101481.53;;;14.42;53.62
50268;BME280;36153;50.960;6.220;2023-04-19T01:56:27;101480.63;;;14.38;53.60
50268;BME280;36153;50.960;6.220;2023-04-19T01:59:27;101476.06;;;14.22;53.97
50268;BME280;36153;50.960;6.220;2023-04-19T02:02:28;101471.56;;;14.10;53.99
50268;BME280;36153;50.960;6.220;2023-04-19T02:05:28;101467.91;;;13.98;54.28
50268;BME280;36153;50.960;6.220;2023-04-19T02:08:29;101475.59;;;13.86;54.73
50268;BME280;36153;50.960;6.220;2023-04-19T02:11:29;101463.16;;;13.68;55.12
50268;BME280;36153;50.960;6.220;2023-04-19T02:14:29;101470.88;;;13.60;55.71
50268;BME280;36153;50.960;6.220;2023-04-19T02:17:30;101463.72;;;13.48;56.09
50268;BME280;36153;50.960;6.220;2023-04-19T02:20:31;101458.41;;;13.41;56.34
50268;BME280;36153;50.960;6.220;2023-04-19T02:23:31;101466.28;;;13.44;56.17
50268;BME280;36153;50.960;6.220;2023-04-19T02:26:32;101460.81;;;13.31;56.78
50268;BME280;36153;50.960;6.220;2023-04-19T02:29:32;101453.09;;;13.36;56.36
50268;BME280;36153;50.960;6.220;2023-04-19T02:32:33;101458.25;;;13.35;56.37
50268;BME280;36153;50.960;6.220;2023-04-19T02:35:33;101467.66;;;13.23;56.80
50268;BME280;36153;50.960;6.220;2023-04-19T02:38:33;101464.16;;;13.21;57.06
50268;BME280;36153;50.960;6.220;2023-04-19T02:41:34;101464.81;;;13.09;57.47
50268;BME280;36153;50.960;6.220;2023-04-19T02:44:34;101470.16;;;13.14;57.56
50268;BME280;36153;50.960;6.220;2023-04-19T02:47:34;101463.97;;;13.10;57.83
50268;BME280;36153;50.960;6.220;2023-04-19T02:50:36;101467.44;;;13.09;57.73
50268;BME280;36153;50.960;6.220;2023-04-19T02:53:37;101466.56;;;13.07;57.92
50268;BME280;36153;50.960;6.220;2023-04-19T02:56:38;101467.34;;;13.02;57.78
50268;BME280;36153;50.960;6.220;2023-04-19T02:59:38;101472.59;;;13.05;58.12
50268;BME280;36153;50.960;6.220;2023-04-19T03:02:39;101469.16;;;13.06;58.38
50268;BME280;36153;50.960;6.220;2023-04-19T03:05:40;101460.50;;;13.10;58.45
50268;BME280;36153;50.960;6.220;2023-04-19T03:08:40;101459.84;;;13.25;58.32
50268;BME280;36153;50.960;6.220;2023-04-19T03:11:40;101466.22;;;13.38;57.86
50268;BME280;36153;50.960;6.220;2023-04-19T03:14:41;101459.22;;;13.37;58.13
50268;BME280;36153;50.960;6.220;2023-04-19T03:17:41;101462.72;;;13.39;58.15
50268;BME280;36153;50.960;6.220;2023-04-19T03:20:41;101467.31;;;13.54;57.94
50268;BME280;36153;50.960;6.220;2023-04-19T03:23:42;101463.03;;;13.60;57.97
50268;BME280;36153;50.960;6.220;2023-04-19T03:26:42;101470.03;;;13.61;58.01
50268;BME280;36153;50.960;6.220;2023-04-19T03:29:43;101462.22;;;13.63;58.02
50268;BME280;36153;50.960;6.220;2023-04-19T03:32:43;101460.91;;;13.96;57.25
50268;BME280;36153;50.960;6.220;2023-04-19T03:35:43;101457.53;;;14.06;57.19
50268;BME280;36153;50.960;6.220;2023-04-19T03:38:44;101457.59;;;14.12;57.01
50268;BME280;36153;50.960;6.220;2023-04-19T03:41:45;101454.94;;;14.06;57.20
50268;BME280;36153;50.960;6.220;2023-04-19T03:44:45;101453.25;;;14.10;56.89
50268;BME280;36153;50.960;6.220;2023-04-19T03:47:45;101452.34;;;14.09;57.21
50268;BME280;36153;50.960;6.220;2023-04-19T03:50:46;101448.88;;;14.10;57.53
50268;BME280;36153;50.960;6.220;2023-04-19T03:53:46;101451.66;;;14.24;57.50
50268;BME280;36153;50.960;6.220;2023-04-19T03:56:46;101449.75;;;14.12;57.52
50268;BME280;36153;50.960;6.220;2023-04-19T03:59:47;101451.50;;;14.12;57.73
50268;BME280;36153;50.960;6.220;2023-04-19T04:02:47;101448.94;;;14.16;57.51
50268;BME280;36153;50.960;6.220;2023-04-19T04:05:47;101451.56;;;14.18;57.78
50268;BME280;36153;50.960;6.220;2023-04-19T04:08:48;101450.66;;;14.14;57.95
50268;BME280;36153;50.960;6.220;2023-04-19T04:11:48;101448.19;;;14.25;57.79
50268;BME280;36153;50.960;6.220;2023-04-19T04:14:49;101447.25;;;14.22;58.03
50268;BME280;36153;50.960;6.220;2023-04-19T04:17:49;101449.84;;;14.20;57.89
50268;BME280;36153;50.960;6.220;2023-04-19T04:20:50;101451.72;;;14.32;57.68
50268;BME280;36153;50.960;6.220;2023-04-19T04:23:50;101455.22;;;14.31;57.79
50268;BME280;36153;50.960;6.220;2023-04-19T04:26:52;101455.06;;;14.17;58.11
50268;BME280;36153;50.960;6.220;2023-04-19T04:29:52;101461.28;;;14.25;57.83
50268;BME280;36153;50.960;6.220;2023-04-19T04:32:53;101459.56;;;14.30;57.76
50268;BME280;36153;50.960;6.220;2023-04-19T04:35:56;101463.09;;;14.31;57.77
50268;BME280;36153;50.960;6.220;2023-04-19T04:38:58;101466.63;;;14.36;57.57
50268;BME280;36153;50.960;6.220;2023-04-19T04:42:00;101466.56;;;14.30;57.60
50268;BME280;36153;50.960;6.220;2023-04-19T04:45:01;101462.19;;;14.32;57.69
50268;BME280;36153;50.960;6.220;2023-04-19T04:48:02;101459.69;;;14.41;57.44
50268;BME280;36153;50.960;6.220;2023-04-19T04:51:02;101463.97;;;14.34;57.51
50268;BME280;36153;50.960;6.220;2023-04-19T04:54:03;101462.16;;;14.26;57.56
50268;BME280;36153;50.960;6.220;2023-04-19T04:57:04;101472.78;;;14.41;57.34
50268;BME280;36153;50.960;6.220;2023-04-19T05:00:05;101465.88;;;14.48;57.02
50268;BME280;36153;50.960;6.220;2023-04-19T05:03:05;101467.53;;;14.38;56.98
50268;BME280;36153;50.960;6.220;2023-04-19T05:06:06;101471.09;;;14.45;56.94
50268;BME280;36153;50.960;6.220;2023-04-19T05:09:06;101465.03;;;14.50;56.61
50268;BME280;36153;50.960;6.220;2023-04-19T05:12:07;101468.53;;;14.51;56.71
50268;BME280;36153;50.960;6.220;2023-04-19T05:15:07;101462.44;;;14.52;56.38
50268;BME280;36153;50.960;6.220;2023-04-19T05:18:08;101469.44;;;14.53;56.37
50268;BME280;36153;50.960;6.220;2023-04-19T05:21:08;101465.22;;;14.63;56.22
50268;BME280;36153;50.960;6.220;2023-04-19T05:24:09;101460.78;;;14.60;56.52
50268;BME280;36153;50.960;6.220;2023-04-19T05:27:10;101462.66;;;14.71;56.04
50268;BME280;36153;50.960;6.220;2023-04-19T05:30:10;101458.31;;;14.74;55.93
50268;BME280;36153;50.960;6.220;2023-04-19T05:33:10;101459.16;;;14.72;55.82
50268;BME280;36153;50.960;6.220;2023-04-19T05:36:11;101458.34;;;14.77;55.31
50268;BME280;36153;50.960;6.220;2023-04-19T05:39:11;101458.25;;;14.68;55.51
50268;BME280;36153;50.960;6.220;2023-04-19T05:42:12;101457.38;;;14.67;55.77
50268;BME280;36153;50.960;6.220;2023-04-19T05:45:12;101465.44;;;14.88;55.67
50268;BME280;36153;50.960;6.220;2023-04-19T05:48:14;101452.41;;;14.98;55.37
50268;BME280;36153;50.960;6.220;2023-04-19T05:51:15;101455.00;;;14.94;55.02
50268;BME280;36153;50.960;6.220;2023-04-19T05:54:18;101447.16;;;14.95;55.17
50268;BME280;36153;50.960;6.220;2023-04-19T05:57:18;101447.16;;;14.97;54.99
50268;BME280;36153;50.960;6.220;2023-04-19T06:00:18;101454.19;;;14.99;54.74
50268;BME280;36153;50.960;6.220;2023-04-19T06:03:19;101451.34;;;14.78;54.84
50268;BME280;36153;50.960;6.220;2023-04-19T06:06:23;101459.22;;;14.79;55.20
50268;BME280;36153;50.960;6.220;2023-04-19T06:09:23;101460.19;;;14.88;55.21
50268;BME280;36153;50.960;6.220;2023-04-19T06:12:23;101452.25;;;14.80;54.98
50268;BME280;36153;50.960;6.220;2023-04-19T06:15:24;101457.56;;;14.86;54.98
50268;BME280;36153;50.960;6.220;2023-04-19T06:18:25;101448.81;;;14.85;55.01
50268;BME280;36153;50.960;6.220;2023-04-19T06:21:25;101457.50;;;14.78;54.89
50268;BME280;36153;50.960;6.220;2023-04-19T06:24:26;101461.13;;;14.94;54.61
50268;BME280;36153;50.960;6.220;2023-04-19T06:27:26;101455.00;;;14.94;54.64
50268;BME280;36153;50.960;6.220;2023-04-19T06:30:26;101461.91;;;14.82;54.83
50268;BME280;36153;50.960;6.220;2023-04-19T06:33:27;101461.06;;;14.85;54.01
50268;BME280;36153;50.960;6.220;2023-04-19T06:36:27;101464.59;;;14.93;53.71
50268;BME280;36153;50.960;6.220;2023-04-19T06:39:28;101459.22;;;14.76;53.61
50268;BME280;36153;50.960;6.220;2023-04-19T06:42:28;101467.34;;;15.07;53.04
50268;BME280;36153;50.960;6.220;2023-04-19T06:45:28;101460.47;;;15.22;52.70
50268;BME280;36153;50.960;6.220;2023-04-19T06:48:29;101455.25;;;15.23;52.29
50268;BME280;36153;50.960;6.220;2023-04-19T06:51:30;101444.78;;;15.31;51.92
50268;BME280;36153;50.960;6.220;2023-04-19T06:54:30;101456.19;;;15.31;51.13
50268;BME280;36153;50.960;6.220;2023-04-19T06:57:30;101463.38;;;15.60;50.69
50268;BME280;36153;50.960;6.220;2023-04-19T07:00:31;101464.19;;;15.53;50.68
50268;BME280;36153;50.960;6.220;2023-04-19T07:03:31;101468.66;;;15.68;49.57
50268;BME280;36153;50.960;6.220;2023-04-19T07:06:32;101471.19;;;15.56;48.77
50268;BME280;36153;50.960;6.220;2023-04-19T07:09:33;101463.47;;;15.74;48.16
50268;BME280;36153;50.960;6.220;2023-04-19T07:12:33;101467.03;;;15.85;48.54
50268;BME280;36153;50.960;6.220;2023-04-19T07:15:34;101471.41;;;15.85;47.56
50268;BME280;36153;50.960;6.220;2023-04-19T07:18:34;101462.78;;;16.17;48.59
50268;BME280;36153;50.960;6.220;2023-04-19T07:21:34;101447.97;;;16.31;46.82
50268;BME280;36153;50.960;6.220;2023-04-19T07:24:35;101459.31;;;16.19;47.17
50268;BME280;36153;50.960;6.220;2023-04-19T07:27:35;101462.00;;;16.44;47.12
50268;BME280;36153;50.960;6.220;2023-04-19T07:30:36;101455.91;;;16.61;45.82
50268;BME280;36153;50.960;6.220;2023-04-19T07:33:36;101452.41;;;16.68;45.98
50268;BME280;36153;50.960;6.220;2023-04-19T07:36:36;101451.56;;;16.72;45.05
50268;BME280;36153;50.960;6.220;2023-04-19T07:39:38;101452.44;;;16.89;44.66
50268;BME280;36153;50.960;6.220;2023-04-19T07:42:38;101448.97;;;17.03;44.86
50268;BME280;36153;50.960;6.220;2023-04-19T07:45:39;101459.50;;;17.00;44.44
50268;BME280;36153;50.960;6.220;2023-04-19T07:48:39;101456.00;;;17.16;44.27
50268;BME280;36153;50.960;6.220;2023-04-19T07:51:40;101455.06;;;17.31;44.00
50268;BME280;36153;50.960;6.220;2023-04-19T07:54:40;101455.97;;;17.05;43.66
50268;BME280;36153;50.960;6.220;2023-04-19T07:57:40;101453.34;;;17.24;43.50
50268;BME280;36153;50.960;6.220;2023-04-19T08:00:45;101457.72;;;17.27;42.52
50268;BME280;36153;50.960;6.220;2023-04-19T08:03:45;101452.44;;;17.39;42.92
50268;BME280;36153;50.960;6.220;2023-04-19T08:06:46;101452.41;;;17.64;43.15
50268;BME280;36153;50.960;6.220;2023-04-19T08:09:46;101458.56;;;17.50;43.21
50268;BME280;36153;50.960;6.220;2023-04-19T08:12:46;101450.69;;;17.47;43.26
50268;BME280;36153;50.960;6.220;2023-04-19T08:15:47;101450.69;;;17.38;42.76
50268;BME280;36153;50.960;6.220;2023-04-19T08:18:47;101447.22;;;17.06;42.97
50268;BME280;36153;50.960;6.220;2023-04-19T08:21:50;101448.09;;;17.09;43.38
50268;BME280;36153;50.960;6.220;2023-04-19T08:24:51;101447.22;;;17.23;42.95
50268;BME280;36153;50.960;6.220;2023-04-19T08:27:51;101448.91;;;17.58;43.70
50268;BME280;36153;50.960;6.220;2023-04-19T08:30:53;101442.69;;;17.78;41.28
50268;BME280;36153;50.960;6.220;2023-04-19T08:33:53;101443.56;;;17.93;42.19
50268;BME280;36153;50.960;6.220;2023-04-19T08:36:54;101434.69;;;18.12;42.08
50268;BME280;36153;50.960;6.220;2023-04-19T08:39:54;101432.06;;;18.12;40.12
50268;BME280;36153;50.960;6.220;2023-04-19T08:42:55;101433.75;;;18.25;39.97
50268;BME280;36153;50.960;6.220;2023-04-19T08:45:56;101438.19;;;18.14;40.92
50268;BME280;36153;50.960;6.220;2023-04-19T08:48:58;101426.56;;;18.54;40.66
50268;BME280;36153;50.960;6.220;2023-04-19T08:51:58;101417.06;;;18.23;39.55
50268;BME280;36153;50.960;6.220;2023-04-19T08:55:05;101418.81;;;18.23;42.06
50268;BME280;36153;50.960;6.220;2023-04-19T08:58:05;101417.06;;;18.27;41.26
50268;BME280;36153;50.960;6.220;2023-04-19T09:01:07;101418.59;;;18.58;40.84
50268;BME280;36153;50.960;6.220;2023-04-19T09:04:07;101418.34;;;18.92;40.24
50268;BME280;36153;50.960;6.220;2023-04-19T09:07:08;101416.75;;;18.70;38.24
50268;BME280;36153;50.960;6.220;2023-04-19T09:10:13;101415.28;;;18.32;39.30
50268;BME280;36153;50.960;6.220;2023-04-19T09:13:17;101410.72;;;18.55;39.65
50268;BME280;36153;50.960;6.220;2023-04-19T09:16:23;101414.13;;;18.68;39.62
50268;BME280;36153;50.960;6.220;2023-04-19T09:19:25;101407.66;;;19.11;39.39
50268;BME280;36153;50.960;6.220;2023-04-19T09:22:25;101397.78;;;19.30;38.58
50268;BME280;36153;50.960;6.220;2023-04-19T09:25:26;101395.81;;;18.51;37.50
50268;BME280;36153;50.960;6.220;2023-04-19T09:28:30;101396.09;;;19.23;38.22
50268;BME280;36153;50.960;6.220;2023-04-19T09:31:35;101399.31;;;19.50;36.67
50268;BME280;36153;50.960;6.220;2023-04-19T09:34:50;101405.56;;;19.42;34.07
50268;BME280;36153;50.960;6.220;2023-04-19T09:38:00;101398.09;;;18.98;35.72
50268;BME280;36153;50.960;6.220;2023-04-19T09:41:07;101405.09;;;19.02;36.36
50268;BME280;36153;50.960;6.220;2023-04-19T09:44:09;101397.69;;;19.38;35.71
50268;BME280;36153;50.960;6.220;2023-04-19T09:47:27;101393.47;;;19.21;34.09
50268;BME280;36153;50.960;6.220;2023-04-19T09:50:29;101389.41;;;19.69;35.81
50268;BME280;36153;50.960;6.220;2023-04-19T09:53:30;101383.28;;;19.65;34.19
50268;BME280;36153;50.960;6.220;2023-04-19T09:56:35;101384.72;;;19.15;33.62
50268;BME280;36153;50.960;6.220;2023-04-19T09:59:35;101392.63;;;19.19;33.93
50268;BME280;36153;50.960;6.220;2023-04-19T10:02:36;101387.16;;;19.38;34.79
50268;BME280;36153;50.960;6.220;2023-04-19T10:05:38;101380.19;;;19.31;33.37
50268;BME280;36153;50.960;6.220;2023-04-19T10:08:41;101389.38;;;19.72;33.85
50268;BME280;36153;50.960;6.220;2023-04-19T10:11:53;101382.22;;;19.85;31.37
50268;BME280;36153;50.960;6.220;2023-04-19T10:14:54;101377.75;;;19.88;33.60
50268;BME280;36153;50.960;6.220;2023-04-19T10:17:56;101377.72;;;19.91;32.69
50268;BME280;36153;50.960;6.220;2023-04-19T10:21:03;101380.09;;;19.38;32.23
50268;BME280;36153;50.960;6.220;2023-04-19T10:24:06;101376.78;;;19.16;31.57
50268;BME280;36153;50.960;6.220;2023-04-19T10:27:10;101371.53;;;19.16;31.94
50268;BME280;36153;50.960;6.220;2023-04-19T10:30:22;101372.91;;;19.53;32.16
50268;BME280;36153;50.960;6.220;2023-04-19T10:33:29;101364.56;;;19.07;32.73
50268;BME280;36153;50.960;6.220;2023-04-19T10:36:30;101357.28;;;19.31;32.44
50268;BME280;36153;50.960;6.220;2023-04-19T10:39:42;101352.72;;;19.44;30.53
50268;BME280;36153;50.960;6.220;2023-04-19T10:43:14;101357.69;;;18.91;31.39
50268;BME280;36153;50.960;6.220;2023-04-19T10:46:35;101354.75;;;19.23;31.29
50268;BME280;36153;50.960;6.220;2023-04-19T10:49:54;101360.38;;;19.69;29.32
50268;BME280;36153;50.960;6.220;2023-04-19T10:52:55;101351.84;;;19.45;29.91
50268;BME280;36153;50.960;6.220;2023-04-19T10:55:55;101349.59;;;19.13;30.07
50268;BME280;36153;50.960;6.220;2023-04-19T11:02:01;101341.63;;;19.90;30.52
50268;BME280;36153;50.960;6.220;2023-04-19T11:05:02;101338.63;;;20.15;30.41
50268;BME280;36153;50.960;6.220;2023-04-19T11:08:03;101330.16;;;20.49;30.58
50268;BME280;36153;50.960;6.220;2023-04-19T11:11:03;101329.88;;;20.68;30.51
50268;BME280;36153;50.960;6.220;2023-04-19T11:14:06;101333.00;;;20.91;27.74
50268;BME280;36153;50.960;6.220;2023-04-19T11:17:24;101328.13;;;20.10;28.21
50268;BME280;36153;50.960;6.220;2023-04-19T11:20:26;101334.69;;;19.82;30.56
50268;BME280;36153;50.960;6.220;2023-04-19T11:23:27;101333.28;;;19.53;29.07
50268;BME280;36153;50.960;6.220;2023-04-19T11:26:27;101324.16;;;19.77;27.88
50268;BME280;36153;50.960;6.220;2023-04-19T11:29:30;101319.84;;;20.34;28.57
50268;BME280;36153;50.960;6.220;2023-04-19T11:32:30;101320.53;;;20.45;28.83
50268;BME280;36153;50.960;6.220;2023-04-19T11:35:31;101310.66;;;20.56;28.17
50268;BME280;36153;50.960;6.220;2023-04-19T11:38:31;101318.69;;;21.02;27.53
50268;BME280;36153;50.960;6.220;2023-04-19T11:41:38;101309.69;;;21.10;26.78
50268;BME280;36153;50.960;6.220;2023-04-19T11:44:39;101306.06;;;20.66;25.82
50268;BME280;36153;50.960;6.220;2023-04-19T11:47:47;101301.88;;;21.06;26.40
50268;BME280;36153;50.960;6.220;2023-04-19T11:50:48;101299.88;;;20.69;26.79
50268;BME280;36153;50.960;6.220;2023-04-19T11:53:49;101303.53;;;20.58;26.65
50268;BME280;36153;50.960;6.220;2023-04-19T11:56:59;101296.69;;;20.48;27.50
50268;BME280;36153;50.960;6.220;2023-04-19T12:00:08;101300.56;;;20.80;27.25
50268;BME280;36153;50.960;6.220;2023-04-19T12:03:11;101285.56;;;20.79;26.11
50268;BME280;36153;50.960;6.220;2023-04-19T12:06:17;101295.22;;;20.83;25.36
50268;BME280;36153;50.960;6.220;2023-04-19T12:09:19;101292.69;;;20.77;25.02
50268;BME280;36153;50.960;6.220;2023-04-19T12:12:32;101288.44;;;20.65;25.93
50268;BME280;36153;50.960;6.220;2023-04-19T12:15:43;101287.00;;;20.47;24.62
50268;BME280;36153;50.960;6.220;2023-04-19T12:18:48;101283.09;;;20.15;25.35
50268;BME280;36153;50.960;6.220;2023-04-19T12:21:49;101279.13;;;20.44;25.16
50268;BME280;36153;50.960;6.220;2023-04-19T12:24:53;101280.88;;;20.45;23.24
50268;BME280;36153;50.960;6.220;2023-04-19T12:27:54;101274.94;;;20.32;24.51
50268;BME280;36153;50.960;6.220;2023-04-19T12:30:54;101273.50;;;20.62;25.34
50268;BME280;36153;50.960;6.220;2023-04-19T12:33:55;101274.22;;;21.19;25.05
50268;BME280;36153;50.960;6.220;2023-04-19T12:36:55;101274.88;;;21.30;24.69
50268;BME280;36153;50.960;6.220;2023-04-19T12:39:55;101264.69;;;21.54;25.05
50268;BME280;36153;50.960;6.220;2023-04-19T12:42:56;101265.19;;;21.29;25.04
50268;BME280;36153;50.960;6.220;2023-04-19T12:45:57;101261.97;;;20.70;24.60
50268;BME280;36153;50.960;6.220;2023-04-19T12:48:57;101260.38;;;20.58;22.96
50268;BME280;36153;50.960;6.220;2023-04-19T12:51:58;101247.63;;;21.25;25.80
50268;BME280;36153;50.960;6.220;2023-04-19T12:54:58;101243.13;;;21.29;24.68
50268;BME280;36153;50.960;6.220;2023-04-19T12:57:58;101248.56;;;21.23;23.55
50268;BME280;36153;50.960;6.220;2023-04-19T13:00:59;101242.56;;;20.68;24.22
50268;BME280;36153;50.960;6.220;2023-04-19T13:03:59;101238.69;;;20.87;23.56
50268;BME280;36153;50.960;6.220;2023-04-19T13:06:59;101233.63;;;20.75;24.99
50268;BME280;36153;50.960;6.220;2023-04-19T13:10:00;101235.72;;;20.56;24.84
50268;BME280;36153;50.960;6.220;2023-04-19T13:13:00;101234.03;;;20.52;24.53
50268;BME280;36153;50.960;6.220;2023-04-19T13:16:00;101240.78;;;20.67;24.45
50268;BME280;36153;50.960;6.220;2023-04-19T13:19:01;101228.94;;;20.89;23.41
50268;BME280;36153;50.960;6.220;2023-04-19T13:22:01;101220.31;;;20.79;24.54
50268;BME280;36153;50.960;6.220;2023-04-19T13:25:02;101214.97;;;21.25;23.30
50268;BME280;36153;50.960;6.220;2023-04-19T13:28:03;101206.44;;;21.51;23.20
50268;BME280;36153;50.960;6.220;2023-04-19T13:31:06;101216.16;;;21.91;23.36
50268;BME280;36153;50.960;6.220;2023-04-19T13:34:07;101204.41;;;21.23;22.57
50268;BME280;36153;50.960;6.220;2023-04-19T13:37:07;101210.97;;;20.58;23.48
50268;BME280;36153;50.960;6.220;2023-04-19T13:40:08;101207.31;;;21.11;24.96
50268;BME280;36153;50.960;6.220;2023-04-19T13:43:09;101205.56;;;21.11;23.98
50268;BME280;36153;50.960;6.220;2023-04-19T13:46:09;101218.22;;;20.95;24.47
50268;BME280;36153;50.960;6.220;2023-04-19T13:49:10;101202.75;;;20.75;24.89
50268;BME280;36153;50.960;6.220;2023-04-19T13:52:10;101200.69;;;21.34;23.89
50268;BME280;36153;50.960;6.220;2023-04-19T13:55:11;101198.09;;;21.71;24.15
50268;BME280;36153;50.960;6.220;2023-04-19T13:58:11;101190.00;;;20.94;22.82
50268;BME280;36153;50.960;6.220;2023-04-19T14:01:11;101185.72;;;20.89;23.92
50268;BME280;36153;50.960;6.220;2023-04-19T14:04:12;101175.09;;;20.90;23.28
50268;BME280;36153;50.960;6.220;2023-04-19T14:07:12;101181.31;;;20.42;24.73
50268;BME280;36153;50.960;6.220;2023-04-19T14:10:13;101176.38;;;20.71;26.75
50268;BME280;36153;50.960;6.220;2023-04-19T14:13:13;101182.19;;;21.30;25.05
50268;BME280;36153;50.960;6.220;2023-04-19T14:16:14;101171.38;;;21.79;24.19
50268;BME280;36153;50.960;6.220;2023-04-19T14:19:14;101173.47;;;21.66;23.60
50268;BME280;36153;50.960;6.220;2023-04-19T14:22:15;101171.22;;;21.47;23.51
50268;BME280;36153;50.960;6.220;2023-04-19T14:25:16;101171.13;;;21.90;23.60
50268;BME280;36153;50.960;6.220;2023-04-19T14:28:17;101156.97;;;21.89;23.23
50268;BME280;36153;50.960;6.220;2023-04-19T14:31:18;101151.97;;;21.78;23.44
50268;BME280;36153;50.960;6.220;2023-04-19T14:34:18;101157.72;;;21.19;24.00
50268;BME280;36153;50.960;6.220;2023-04-19T14:37:20;101157.34;;;21.36;23.55
50268;BME280;36153;50.960;6.220;2023-04-19T14:40:21;101151.50;;;21.61;23.41
50268;BME280;36153;50.960;6.220;2023-04-19T14:43:21;101149.50;;;21.31;23.73
50268;BME280;36153;50.960;6.220;2023-04-19T14:46:22;101146.31;;;21.92;22.75
50268;BME280;36153;50.960;6.220;2023-04-19T14:49:22;101135.13;;;21.79;24.33
50268;BME280;36153;50.960;6.220;2023-04-19T14:52:22;101129.38;;;21.24;23.42
50268;BME280;36153;50.960;6.220;2023-04-19T14:55:23;101130.91;;;21.35;23.72
50268;BME280;36153;50.960;6.220;2023-04-19T14:58:26;101125.66;;;21.71;24.52
50268;BME280;36153;50.960;6.220;2023-04-19T15:01:26;101126.00;;;21.57;24.66
50268;BME280;36153;50.960;6.220;2023-04-19T15:04:26;101120.41;;;21.30;24.60
50268;BME280;36153;50.960;6.220;2023-04-19T15:07:27;101117.66;;;21.35;24.08
50268;BME280;36153;50.960;6.220;2023-04-19T15:10:27;101120.97;;;20.63;23.61
50268;BME280;36153;50.960;6.220;2023-04-19T15:13:27;101125.28;;;20.69;24.27
50268;BME280;36153;50.960;6.220;2023-04-19T15:16:28;101112.25;;;21.02;24.25
50268;BME280;36153;50.960;6.220;2023-04-19T15:19:30;101103.69;;;21.28;26.03
50268;BME280;36153;50.960;6.220;2023-04-19T15:22:31;101107.69;;;20.64;24.64
50268;BME280;36153;50.960;6.220;2023-04-19T15:25:33;101117.44;;;20.64;24.61
50268;BME280;36153;50.960;6.220;2023-04-19T15:28:34;101109.25;;;21.17;24.96
50268;BME280;36153;50.960;6.220;2023-04-19T15:31:35;101116.16;;;20.84;24.64
50268;BME280;36153;50.960;6.220;2023-04-19T15:34:35;101111.03;;;20.31;24.38
50268;BME280;36153;50.960;6.220;2023-04-19T15:37:35;101101.00;;;20.46;24.86
50268;BME280;36153;50.960;6.220;2023-04-19T15:40:37;101106.97;;;20.11;23.91
50268;BME280;36153;50.960;6.220;2023-04-19T15:43:37;101104.94;;;20.71;24.96
50268;BME280;36153;50.960;6.220;2023-04-19T15:46:38;101102.53;;;21.02;24.23
50268;BME280;36153;50.960;6.220;2023-04-19T15:49:38;101111.59;;;20.90;24.25
50268;BME280;36153;50.960;6.220;2023-04-19T15:52:39;101101.72;;;20.98;24.35